createdAt,value
2022-11-02T00:02:10.946Z,-63
2022-11-02T00:04:37.481Z,-65
2022-11-02T00:07:04.027Z,-61
2022-11-02T00:09:30.586Z,-64
2022-11-02T00:11:57.076Z,-61
2022-11-02T00:14:23.640Z,-64
2022-11-02T00:16:50.210Z,-62
2022-11-02T00:19:16.762Z,-63
2022-11-02T00:21:43.687Z,-61
2022-11-02T00:24:12.547Z,-63
2022-11-02T00:26:39.273Z,-62
2022-11-02T00:29:07.160Z,-62
2022-11-02T00:31:33.664Z,-64
2022-11-02T00:34:00.142Z,-62
2022-11-02T00:36:27.948Z,-61
2022-11-02T00:38:54.473Z,-65
2022-11-02T00:41:21.311Z,-61
2022-11-02T00:43:47.925Z,-63
2022-11-02T00:46:14.597Z,-61
2022-11-02T00:48:41.119Z,-61
2022-11-02T00:51:07.618Z,-61
2022-11-02T00:53:34.098Z,-61
2022-11-02T00:56:00.815Z,-63
2022-11-02T00:58:27.296Z,-64
2022-11-02T01:00:53.798Z,-64
2022-11-02T01:03:20.320Z,-62
2022-11-02T01:05:46.817Z,-62
2022-11-02T01:08:13.547Z,-60
2022-11-02T01:10:42.755Z,-62
2022-11-02T01:13:12.110Z,-64
2022-11-02T01:15:38.618Z,-63
2022-11-02T01:18:05.977Z,-62
2022-11-02T01:20:32.680Z,-61
2022-11-02T01:22:59.364Z,-62
2022-11-02T01:25:26.270Z,-63
2022-11-02T01:27:52.760Z,-62
2022-11-02T01:30:19.493Z,-61
2022-11-02T01:32:46.053Z,-62
2022-11-02T01:35:12.527Z,-63
2022-11-02T01:37:39.465Z,-62
2022-11-02T01:40:06.355Z,-62
2022-11-02T01:42:32.969Z,-61
2022-11-02T01:44:59.523Z,-62
2022-11-02T01:47:31.359Z,-63
2022-11-02T01:50:06.631Z,-62
2022-11-02T01:52:36.435Z,-63
2022-11-02T01:55:22.597Z,-61
2022-11-02T01:58:12.704Z,-63
2022-11-02T02:00:40.144Z,-63
2022-11-02T02:03:12.567Z,-62
2022-11-02T02:05:47.080Z,-62
2022-11-02T02:08:17.978Z,-64
2022-11-02T02:10:44.549Z,-62
2022-11-02T02:13:12.199Z,-62
2022-11-02T02:16:05.520Z,-62
2022-11-02T02:18:49.603Z,-63
2022-11-02T02:21:31.022Z,-63
2022-11-02T02:24:31.021Z,-62
2022-11-02T02:27:00.715Z,-62
2022-11-02T02:29:30.181Z,-62
2022-11-02T02:32:13.719Z,-62
2022-11-02T02:34:53.807Z,-62
2022-11-02T02:37:29.239Z,-63
2022-11-02T02:40:00.271Z,-62
2022-11-02T02:42:54.964Z,-62
2022-11-02T02:45:39.397Z,-62
2022-11-02T02:48:21.371Z,-63
2022-11-02T02:50:50.518Z,-63
2022-11-02T02:53:22.899Z,-62
2022-11-02T02:55:50.684Z,-62
2022-11-02T02:58:24.773Z,-63
2022-11-02T03:00:55.768Z,-62
2022-11-02T03:03:25.328Z,-62
2022-11-02T03:06:20.676Z,-63
2022-11-02T03:09:11.395Z,-62
2022-11-02T03:11:49.746Z,-63
2022-11-02T03:14:38.447Z,-62
2022-11-02T03:17:15.570Z,-63
2022-11-02T03:20:00.646Z,-63
2022-11-02T03:22:34.917Z,-61
2022-11-02T03:25:17.443Z,-63
2022-11-02T03:28:08.176Z,-62
2022-11-02T03:30:43.271Z,-62
2022-11-02T03:33:20.682Z,-62
2022-11-02T03:36:16.654Z,-62
2022-11-02T03:38:56.173Z,-62
2022-11-02T03:41:24.687Z,-62
2022-11-02T03:43:57.209Z,-62
2022-11-02T03:46:24.156Z,-63
2022-11-02T03:48:54.308Z,-63
2022-11-02T03:51:24.754Z,-63
2022-11-02T03:53:59.831Z,-62
2022-11-02T03:56:38.852Z,-62
2022-11-02T03:59:05.541Z,-62
2022-11-02T04:01:39.153Z,-63
2022-11-02T04:04:05.927Z,-62
2022-11-02T04:06:33.150Z,-62
2022-11-02T04:09:00.224Z,-62
2022-11-02T04:11:46.320Z,-62
2022-11-02T04:14:42.510Z,-62
2022-11-02T04:19:57.863Z,-62
2022-11-02T04:22:43.162Z,-62
2022-11-02T04:25:21.053Z,-62
2022-11-02T04:27:52.261Z,-62
2022-11-02T04:30:21.202Z,-63
2022-11-02T04:33:08.662Z,-62
2022-11-02T04:35:36.549Z,-62
2022-11-02T04:38:21.947Z,-62
2022-11-02T04:40:48.669Z,-63
2022-11-02T04:43:15.232Z,-62
2022-11-02T04:45:41.738Z,-62
2022-11-02T04:48:09.871Z,-62
2022-11-02T04:50:37.294Z,-62
2022-11-02T04:53:07.126Z,-62
2022-11-02T04:55:34.221Z,-63
2022-11-02T04:58:00.959Z,-63
2022-11-02T05:00:27.840Z,-63
2022-11-02T05:02:54.441Z,-63
2022-11-02T05:05:21.031Z,-63
2022-11-02T05:07:47.530Z,-64
2022-11-02T05:10:14.592Z,-63
2022-11-02T05:12:41.448Z,-63
2022-11-02T05:15:08.285Z,-63
2022-11-02T05:17:34.879Z,-61
2022-11-02T05:20:02.321Z,-63
2022-11-02T05:22:28.890Z,-63
2022-11-02T05:24:55.463Z,-64
2022-11-02T05:27:22.025Z,-63
2022-11-02T05:29:48.561Z,-61
2022-11-02T05:32:15.081Z,-62
2022-11-02T05:34:41.568Z,-62
2022-11-02T05:37:08.193Z,-63
2022-11-02T05:39:34.751Z,-61
2022-11-02T05:42:01.414Z,-62
2022-11-02T05:44:27.877Z,-60
2022-11-02T05:46:54.406Z,-57
2022-11-02T05:49:20.911Z,-59
2022-11-02T05:51:47.416Z,-57
2022-11-02T05:54:13.903Z,-57
2022-11-02T05:56:43.111Z,-60
2022-11-02T05:59:10.178Z,-59
2022-11-02T06:01:36.767Z,-58
2022-11-02T06:04:03.505Z,-56
2022-11-02T06:06:30.037Z,-55
2022-11-02T06:08:56.551Z,-58
2022-11-02T06:11:23.418Z,-59
2022-11-02T06:13:51.342Z,-60
2022-11-02T06:16:22.996Z,-57
2022-11-02T06:18:50.211Z,-56
2022-11-02T06:21:16.734Z,-57
2022-11-02T06:23:43.692Z,-56
2022-11-02T06:26:11.366Z,-57
2022-11-02T06:28:37.874Z,-58
2022-11-02T06:31:04.563Z,-58
2022-11-02T06:33:31.084Z,-58
2022-11-02T06:35:58.044Z,-58
2022-11-02T06:38:25.335Z,-59
2022-11-02T06:41:04.077Z,-56
2022-11-02T06:43:30.786Z,-58
2022-11-02T06:45:58.425Z,-58
2022-11-02T06:48:32.977Z,-58
2022-11-02T06:51:01.668Z,-55
2022-11-02T06:53:28.220Z,-58
2022-11-02T06:55:56.056Z,-57
2022-11-02T06:58:24.237Z,-59
2022-11-02T07:00:51.595Z,-58
2022-11-02T07:03:18.124Z,-57
2022-11-02T07:05:51.390Z,-58
2022-11-02T07:08:18.340Z,-54
2022-11-02T07:10:45.414Z,-57
2022-11-02T07:13:12.133Z,-54
2022-11-02T07:15:39.789Z,-57
2022-11-02T07:18:06.883Z,-56
2022-11-02T07:20:33.690Z,-57
2022-11-02T07:23:01.969Z,-57
2022-11-02T07:25:33.501Z,-58
2022-11-02T07:28:01.274Z,-58
2022-11-02T07:30:32.933Z,-60
2022-11-02T07:32:59.861Z,-59
2022-11-02T07:35:26.959Z,-56
2022-11-02T07:38:11.678Z,-58
2022-11-02T07:40:39.167Z,-57
2022-11-02T07:43:07.034Z,-59
2022-11-02T07:45:33.860Z,-58
2022-11-02T07:48:00.898Z,-57
2022-11-02T07:50:27.586Z,-56
2022-11-02T07:52:58.266Z,-56
2022-11-02T07:55:28.526Z,-61
2022-11-02T07:58:01.968Z,-65
2022-11-02T08:00:31.415Z,-62
2022-11-02T08:02:59.670Z,-64
2022-11-02T08:05:27.798Z,-62
2022-11-02T08:08:05.724Z,-63
2022-11-02T08:10:37.401Z,-63
2022-11-02T08:13:08.624Z,-62
2022-11-02T08:15:35.236Z,-62
2022-11-02T08:18:14.620Z,-64
2022-11-02T08:20:41.789Z,-66
2022-11-02T08:23:10.754Z,-66
2022-11-02T08:25:38.661Z,-66
2022-11-02T08:28:07.203Z,-66
2022-11-02T08:30:34.084Z,-66
2022-11-02T08:33:19.873Z,-66
2022-11-02T08:35:47.991Z,-66
2022-11-02T08:38:14.944Z,-64
2022-11-02T08:40:41.993Z,-64
2022-11-02T08:43:14.075Z,-67
2022-11-02T08:46:13.287Z,-64
2022-11-02T08:48:30.066Z,-64
2022-11-02T08:50:59.461Z,-65
2022-11-02T08:53:26.043Z,-65
2022-11-02T08:55:52.612Z,-65
2022-11-02T08:58:20.207Z,-64
2022-11-02T09:00:46.754Z,-66
2022-11-02T09:03:15.566Z,-67
2022-11-02T09:05:44.240Z,-63
2022-11-02T09:08:17.002Z,-64
2022-11-02T09:10:44.214Z,-64
2022-11-02T09:13:13.330Z,-64
2022-11-02T09:15:40.202Z,-64
2022-11-02T09:18:08.293Z,-63
2022-11-02T09:20:35.634Z,-64
2022-11-02T09:23:02.440Z,-64
2022-11-02T09:25:29.053Z,-64
2022-11-02T09:27:57.011Z,-65
2022-11-02T09:30:25.621Z,-65
2022-11-02T09:32:59.471Z,-65
2022-11-02T09:35:28.075Z,-63
2022-11-02T09:37:54.596Z,-65
2022-11-02T09:40:24.324Z,-65
2022-11-02T09:43:15.780Z,-66
2022-11-02T09:46:06.489Z,-64
2022-11-02T09:48:41.436Z,-65
2022-11-02T09:51:11.858Z,-65
2022-11-02T09:54:06.152Z,-64
2022-11-02T09:56:34.717Z,-65
2022-11-02T09:59:06.071Z,-64
2022-11-02T10:01:51.533Z,-65
2022-11-02T10:04:30.202Z,-65
2022-11-02T10:07:18.363Z,-64
2022-11-02T10:10:00.986Z,-65
2022-11-02T10:12:46.053Z,-65
2022-11-02T10:15:22.984Z,-64
2022-11-02T10:17:56.579Z,-64
2022-11-02T10:20:41.650Z,-64
2022-11-02T10:23:12.452Z,-63
2022-11-02T10:25:39.193Z,-64
2022-11-02T10:28:15.649Z,-64
2022-11-02T10:30:44.462Z,-63
2022-11-02T10:33:15.110Z,-64
2022-11-02T10:35:57.724Z,-64
2022-11-02T10:38:56.294Z,-65
2022-11-02T10:41:26.172Z,-64
2022-11-02T10:44:06.839Z,-64
2022-11-02T10:46:39.857Z,-65
2022-11-02T10:49:16.279Z,-65
2022-11-02T10:51:42.966Z,-65
2022-11-02T10:54:17.703Z,-65
2022-11-02T10:56:49.559Z,-64
2022-11-02T10:59:23.605Z,-64
2022-11-02T11:01:56.408Z,-65
2022-11-02T11:04:26.573Z,-66
2022-11-02T11:06:54.484Z,-64
2022-11-02T11:09:24.897Z,-65
2022-11-02T11:12:03.914Z,-65
2022-11-02T11:20:36.286Z,-60
2022-11-02T11:23:15.763Z,-64
2022-11-02T11:25:43.027Z,-64
2022-11-02T11:28:27.961Z,-66
2022-11-02T11:31:17.914Z,-66
2022-11-02T11:33:48.531Z,-67
2022-11-02T11:36:31.244Z,-67
2022-11-02T11:39:03.631Z,-65
2022-11-02T11:41:32.827Z,-67
2022-11-02T11:44:01.635Z,-65
2022-11-02T11:46:44.435Z,-66
2022-11-02T11:50:03.404Z,-66
2022-11-02T11:52:36.282Z,-66
2022-11-02T11:55:20.126Z,-66
2022-11-02T11:57:46.839Z,-63
2022-11-02T12:00:28.475Z,-67
2022-11-02T12:03:12.617Z,-65
2022-11-02T12:06:14.134Z,-69
2022-11-02T12:09:11.947Z,-68
2022-11-02T12:11:56.986Z,-64
2022-11-02T12:15:07.363Z,-64
2022-11-02T12:17:47.567Z,-65
2022-11-02T12:20:35.686Z,-65
2022-11-02T12:23:15.718Z,-65
2022-11-02T12:26:05.823Z,-65
2022-11-02T12:28:59.314Z,-67
2022-11-02T12:31:37.050Z,-67
2022-11-02T12:34:24.792Z,-67
2022-11-02T12:37:35.830Z,-67
2022-11-02T12:40:41.594Z,-67
2022-11-02T12:43:29.988Z,-67
2022-11-02T12:46:02.695Z,-67
2022-11-02T12:48:32.206Z,-68
2022-11-02T12:51:05.321Z,-68
2022-11-02T12:53:48.978Z,-67
2022-11-02T12:56:25.129Z,-68
2022-11-02T12:58:52.319Z,-68
2022-11-02T13:01:28.356Z,-68
2022-11-02T13:04:01.863Z,-63
2022-11-02T13:06:39.866Z,-63
2022-11-02T13:09:15.019Z,-62
2022-11-02T13:11:54.484Z,-62
2022-11-02T13:14:23.516Z,-62
2022-11-02T13:17:03.205Z,-62
2022-11-02T13:19:39.239Z,-62
2022-11-02T13:22:10.341Z,-61
2022-11-02T13:24:47.570Z,-62
2022-11-02T13:27:36.280Z,-62
2022-11-02T13:30:13.189Z,-62
2022-11-02T13:32:44.426Z,-62
2022-11-02T13:35:29.420Z,-62
2022-11-02T13:38:20.922Z,-63
2022-11-02T13:41:08.375Z,-63
2022-11-02T13:43:49.137Z,-63
2022-11-02T13:46:37.747Z,-63
2022-11-02T13:49:17.772Z,-63
2022-11-02T13:51:49.404Z,-63
2022-11-02T13:54:23.744Z,-63
2022-11-02T13:56:57.433Z,-61
2022-11-02T13:59:30.908Z,-60
2022-11-02T14:02:00.505Z,-60
2022-11-02T14:04:30.886Z,-60
2022-11-02T14:07:00.632Z,-61
2022-11-02T14:09:47.582Z,-62
2022-11-02T14:12:22.937Z,-60
2022-11-02T14:15:14.366Z,-60
2022-11-02T14:18:14.692Z,-60
2022-11-02T14:20:45.085Z,-62
2022-11-02T14:23:11.644Z,-60
2022-11-02T14:25:53.371Z,-59
2022-11-02T14:28:22.950Z,-60
2022-11-02T14:31:19.647Z,-60
2022-11-02T14:33:52.091Z,-59
2022-11-02T14:36:19.660Z,-60
2022-11-02T14:41:59.954Z,-61
2022-11-02T14:44:29.257Z,-62
2022-11-02T14:47:04.729Z,-61
2022-11-02T14:49:34.656Z,-60
2022-11-02T14:52:06.535Z,-60
2022-11-02T14:54:53.756Z,-61
2022-11-02T14:57:39.981Z,-65
2022-11-02T15:00:24.730Z,-62
2022-11-02T15:02:54.968Z,-60
2022-11-02T15:05:26.342Z,-63
2022-11-02T15:08:04.311Z,-62
2022-11-02T15:10:31.287Z,-62
2022-11-02T15:13:19.653Z,-62
2022-11-02T15:16:06.096Z,-61
2022-11-02T15:18:36.136Z,-60
2022-11-02T15:21:11.632Z,-62
2022-11-02T15:24:02.291Z,-60
2022-11-02T15:26:50.437Z,-60
2022-11-02T15:29:30.969Z,-60
2022-11-02T15:31:58.680Z,-60
2022-11-02T15:34:35.490Z,-62
2022-11-02T15:37:02.486Z,-60
2022-11-02T15:39:31.821Z,-60
2022-11-02T15:42:21.500Z,-59
2022-11-02T15:44:50.763Z,-61
2022-11-02T15:48:14.944Z,-61
2022-11-02T15:50:44.464Z,-62
2022-11-02T15:53:48.344Z,-63
2022-11-02T15:56:29.978Z,-63
2022-11-02T15:59:20.978Z,-64
2022-11-02T16:02:08.862Z,-61
2022-11-02T16:04:36.166Z,-60
2022-11-02T16:07:07.165Z,-60
2022-11-02T16:09:38.564Z,-62
2022-11-02T16:12:19.123Z,-63
2022-11-02T16:15:05.854Z,-64
2022-11-02T16:17:32.426Z,-60
2022-11-02T16:20:13.932Z,-62
2022-11-02T16:22:41.300Z,-62
2022-11-02T16:25:14.412Z,-62
2022-11-02T16:27:40.992Z,-66
2022-11-02T16:30:17.559Z,-61
2022-11-02T16:32:45.415Z,-60
2022-11-02T16:35:16.955Z,-61
2022-11-02T16:37:44.548Z,-61
2022-11-02T16:40:21.230Z,-60
2022-11-02T16:42:49.863Z,-61
2022-11-02T16:45:42.292Z,-61
2022-11-02T16:48:25.587Z,-61
2022-11-02T16:51:14.614Z,-63
2022-11-02T16:53:42.253Z,-63
2022-11-02T16:56:31.568Z,-61
2022-11-02T16:59:06.081Z,-62
2022-11-02T17:01:39.145Z,-64
2022-11-02T17:04:22.579Z,-61
2022-11-02T17:06:53.709Z,-63
2022-11-02T17:09:27.304Z,-61
2022-11-02T17:11:58.805Z,-60
2022-11-02T17:14:26.844Z,-61
2022-11-02T17:17:07.365Z,-60
2022-11-02T17:19:40.084Z,-61
2022-11-02T17:22:21.709Z,-61
2022-11-02T17:24:48.343Z,-60
2022-11-02T17:27:25.580Z,-60
2022-11-02T17:29:54.809Z,-61
2022-11-02T17:32:23.739Z,-61
2022-11-02T17:34:50.459Z,-61
2022-11-02T17:37:35.179Z,-61
2022-11-02T17:40:02.657Z,-60
2022-11-02T17:42:48.539Z,-60
2022-11-02T17:45:20.750Z,-60
2022-11-02T17:47:47.478Z,-60
2022-11-02T17:50:14.305Z,-61
2022-11-02T17:52:41.016Z,-60
2022-11-02T17:55:14.044Z,-59
2022-11-02T17:57:40.651Z,-60
2022-11-02T18:00:07.962Z,-60
2022-11-02T18:02:34.620Z,-60
2022-11-02T18:05:01.211Z,-62
2022-11-02T18:07:27.728Z,-63
2022-11-02T18:09:54.268Z,-63
2022-11-02T18:12:21.151Z,-63
2022-11-02T18:14:47.643Z,-63
2022-11-02T18:17:14.187Z,-62
2022-11-02T18:19:40.698Z,-63
2022-11-02T18:22:09.525Z,-63
2022-11-02T18:24:36.064Z,-62
2022-11-02T18:27:02.541Z,-62
2022-11-02T18:29:29.039Z,-62
2022-11-02T18:31:55.573Z,-61
2022-11-02T18:34:22.076Z,-61
2022-11-02T18:36:48.681Z,-61
2022-11-02T18:39:15.377Z,-62
2022-11-02T18:41:42.667Z,-62
2022-11-02T18:44:14.953Z,-62
2022-11-02T18:46:42.324Z,-62
2022-11-02T18:49:08.955Z,-61
2022-11-02T18:51:35.488Z,-62
2022-11-02T18:54:05.260Z,-61
2022-11-02T18:56:32.183Z,-62
2022-11-02T18:58:59.169Z,-62
2022-11-02T19:01:26.844Z,-62
2022-11-02T19:03:55.358Z,-62
2022-11-02T19:06:41.050Z,-61
2022-11-02T19:09:18.927Z,-62
2022-11-02T19:11:50.330Z,-62
2022-11-02T19:14:17.656Z,-62
2022-11-02T19:16:44.568Z,-62
2022-11-02T19:19:11.179Z,-62
2022-11-02T19:21:37.799Z,-62
2022-11-02T19:24:06.297Z,-61
2022-11-02T19:26:34.035Z,-62
2022-11-02T19:29:04.901Z,-60
2022-11-02T19:31:33.946Z,-61
2022-11-02T19:34:00.634Z,-62
2022-11-02T19:36:27.683Z,-62
2022-11-02T19:38:54.271Z,-61
2022-11-02T19:41:21.847Z,-63
2022-11-02T19:43:48.393Z,-62
2022-11-02T19:46:17.551Z,-62
2022-11-02T19:48:44.055Z,-62
2022-11-02T19:51:13.345Z,-61
2022-11-02T19:53:44.630Z,-61
2022-11-02T19:56:13.035Z,-70
2022-11-02T19:58:41.242Z,-67
2022-11-02T20:01:12.179Z,-66
2022-11-02T20:03:39.333Z,-68
2022-11-02T20:06:09.247Z,-66
2022-11-02T20:08:35.881Z,-69
2022-11-02T20:11:14.541Z,-69
2022-11-02T20:13:43.208Z,-67
2022-11-02T20:16:11.219Z,-67
2022-11-02T20:18:39.906Z,-68
2022-11-02T20:21:33.445Z,-69
2022-11-02T20:24:03.082Z,-66
2022-11-02T20:26:35.172Z,-69
2022-11-02T20:29:03.158Z,-67
2022-11-02T20:31:32.809Z,-66
2022-11-02T20:34:00.267Z,-67
2022-11-02T20:36:27.710Z,-66
2022-11-02T20:38:54.877Z,-67
2022-11-02T20:41:34.007Z,-67
2022-11-02T20:44:00.517Z,-67
2022-11-02T20:46:39.639Z,-67
2022-11-02T20:49:20.402Z,-67
2022-11-02T20:51:51.274Z,-68
2022-11-02T20:54:19.813Z,-66
2022-11-02T20:56:47.067Z,-67
2022-11-02T20:59:13.795Z,-67
2022-11-02T21:01:40.549Z,-69
2022-11-02T21:04:07.642Z,-67
2022-11-02T21:06:34.196Z,-68
2022-11-02T21:09:00.991Z,-69
2022-11-02T21:11:46.372Z,-68
2022-11-02T21:14:13.017Z,-68
2022-11-02T21:16:39.582Z,-67
2022-11-02T21:19:06.627Z,-67
2022-11-02T21:21:33.914Z,-66
2022-11-02T21:24:00.553Z,-67
2022-11-02T21:26:27.481Z,-70
2022-11-02T21:28:54.097Z,-69
2022-11-02T21:31:21.689Z,-67
2022-11-02T21:33:49.622Z,-69
2022-11-02T21:36:17.420Z,-67
2022-11-02T21:38:48.715Z,-67
2022-11-02T21:41:21.161Z,-65
2022-11-02T21:43:48.084Z,-65
2022-11-02T21:46:14.763Z,-69
2022-11-02T21:48:41.428Z,-68
2022-11-02T21:51:10.834Z,-70
2022-11-02T21:53:39.935Z,-69
2022-11-02T21:56:15.300Z,-68
2022-11-02T21:58:44.969Z,-67
2022-11-02T22:01:37.607Z,-68
2022-11-02T22:04:05.075Z,-69
2022-11-02T22:06:32.176Z,-71
2022-11-02T22:08:59.929Z,-68
2022-11-02T22:11:27.434Z,-68
2022-11-02T22:13:55.835Z,-72
2022-11-02T22:16:32.018Z,-69
2022-11-02T22:19:00.544Z,-66
2022-11-02T22:21:30.246Z,-66
2022-11-02T22:23:57.391Z,-68
2022-11-02T22:26:26.415Z,-65
2022-11-02T22:28:53.774Z,-70
2022-11-02T22:31:28.849Z,-66
2022-11-02T22:33:58.165Z,-68
2022-11-02T22:36:27.213Z,-63
2022-11-02T22:38:56.051Z,-63
2022-11-02T22:41:32.469Z,-64
2022-11-02T22:44:01.924Z,-64
2022-11-02T22:46:30.055Z,-64
2022-11-02T22:48:58.949Z,-64
2022-11-02T22:51:27.928Z,-65
2022-11-02T22:53:54.881Z,-64
2022-11-02T22:56:23.120Z,-64
2022-11-02T22:58:50.886Z,-69
2022-11-02T23:01:20.686Z,-70
2022-11-02T23:03:48.280Z,-68
2022-11-02T23:06:16.850Z,-71
2022-11-02T23:08:45.853Z,-68
2022-11-02T23:11:22.741Z,-67
2022-11-02T23:14:04.776Z,-72
2022-11-02T23:16:35.737Z,-69
2022-11-02T23:19:28.955Z,-67
2022-11-02T23:22:23.121Z,-70
2022-11-02T23:25:10.086Z,-71
2022-11-02T23:27:57.945Z,-70
2022-11-02T23:30:44.909Z,-71
2022-11-02T23:33:11.496Z,-69
2022-11-02T23:35:56.771Z,-67
2022-11-02T23:38:23.807Z,-67
2022-11-02T23:40:54.970Z,-69
2022-11-02T23:43:21.567Z,-69
2022-11-02T23:45:48.158Z,-67
2022-11-02T23:51:00.908Z,-71
2022-11-02T23:53:45.924Z,-70
2022-11-02T23:56:34.980Z,-69
2022-11-02T23:59:07.745Z,-72
